Welcome to Trans World Virtual Airlines!

Welcome TWVA's Newest Pilot:

TWA2313 Bryan Heald

Not a Trans World pilot yet?
Apply Now!




Sign-in with your pilot id or email, or register

Flight TWA812

  • Submitted By: Austin Hill
  • Departure Airport: JFK Airport (KJFK)
  • Arrival Airport: Greater Buffalo International Airport (KBUF)
  • Aircraft: MD-83 (N44266TW)
  • Flight Time: 01.41
  • Date Submitted: 11/09/2018
  • Route: HNK KODEY MEMMS EXTOL BEEPS HANKK WELTI BUF KBUF
  • Status: Accepted
Flight Details
Gross Revenue:
(125 load / $ 95.00 per unit
$ 11, 875.00
Fuel Cost:
(13752 fuel used @ 0.8 / unit)
$ 11, 001.60

Additional Log Information:

View Log

FS[02:39] Aircraft Title - MD_83 TWA
FS[02:39] Aircraft Model - MD83
FS[02:39] Flight Number TWA812
FS[02:39] Departure KJFK
FS[02:39] Destination KBUF
FS[02:39] Boarding
FS[02:47] Pushing Back
FS[02:51] Taxiing to Runway
FS[03:03] Taking Off
FS[03:03] Taking Off
FS[03:03] 155kts
FS[03:03] pitch angle 11 degrees
FS[03:03] 34124 (lbs) of fuel onboard
FS[03:03] Climbing
FS[03:18] TOC Reached
FS[03:18] Cruise 26000
FS[03:37] TOD Reached
FS[03:37] Descending
FS[03:52] On Approach
FS[04:06] Landing Rate -225fpm
FS[04:06] 22716 (lbs) of fuel onboard
FS[04:06] pitch angle 7 degrees
FS[04:06] Taxiing to Gate
FS[04:12] Arrived
FS[04:20] Max Sim Rate: 1x
FS[04:20] kACARS_Free Version 1.0.1.1

Comments

Commenter Comment
Austin Hill KJFK 090153Z 01011KT 10SM BKN180 08/00 A3035 // KBUF 090353Z 00000KT 10SM FEW035 OVC045 04/M04 A3036

Route Map